createdAt,value
2017-07-29T00:00:23.309Z,1003.2
2017-07-29T00:01:24.895Z,1003.2
2017-07-29T00:02:26.570Z,1003.3
2017-07-29T00:03:28.228Z,1003.3
2017-07-29T00:04:29.795Z,1003.3
2017-07-29T00:05:31.556Z,1003.3
2017-07-29T00:06:33.124Z,1003.3
2017-07-29T00:07:34.818Z,1003.2
2017-07-29T00:08:36.310Z,1003.2
2017-07-29T00:09:38.059Z,1003.2
2017-07-29T00:10:39.642Z,1003.2
2017-07-29T00:11:41.369Z,1003.2
2017-07-29T00:12:43.068Z,1003.1
2017-07-29T00:13:44.755Z,1003.2
2017-07-29T00:14:46.376Z,1003.2
2017-07-29T00:15:48.070Z,1003.2
2017-07-29T00:16:49.719Z,1003.2
2017-07-29T00:17:51.345Z,1003.2
2017-07-29T00:18:52.942Z,1003.2
2017-07-29T00:19:54.627Z,1003.2
2017-07-29T00:20:56.207Z,1003.2
2017-07-29T00:21:57.803Z,1003.2
2017-07-29T00:22:59.484Z,1003.1
2017-07-29T00:24:01.022Z,1003.1
2017-07-29T00:25:02.599Z,1003.1
2017-07-29T00:26:04.241Z,1003.1
2017-07-29T00:27:05.876Z,1003.1
2017-07-29T00:28:07.475Z,1003.2
2017-07-29T00:29:09.070Z,1003.2
2017-07-29T00:30:10.784Z,1003.2
2017-07-29T00:31:12.495Z,1003.1
2017-07-29T00:32:14.176Z,1003.1
2017-07-29T00:33:15.788Z,1003.1
2017-07-29T00:34:18.515Z,1003.1
2017-07-29T00:35:20.205Z,1003.1
2017-07-29T00:36:21.882Z,1003.0
2017-07-29T00:37:23.485Z,1003.0
2017-07-29T00:38:25.218Z,1003.0
2017-07-29T00:39:26.874Z,1003.0
2017-07-29T00:40:28.577Z,1003.0
2017-07-29T00:41:30.197Z,1003.0
2017-07-29T00:42:31.866Z,1003.0
2017-07-29T00:43:33.471Z,1003.0
2017-07-29T00:44:35.171Z,1003.0
2017-07-29T00:45:36.685Z,1003.1
2017-07-29T00:46:39.306Z,1003.1
2017-07-29T00:47:40.928Z,1003.1
2017-07-29T00:48:42.584Z,1003.1
2017-07-29T00:49:49.905Z,1003.1
2017-07-29T00:50:51.543Z,1003.1
2017-07-29T00:51:53.241Z,1003.0
2017-07-29T00:52:54.843Z,1003.0
2017-07-29T00:53:56.467Z,1003.0
2017-07-29T00:54:58.042Z,1003.0
2017-07-29T00:55:59.751Z,1003.0
2017-07-29T00:57:01.335Z,1003.0
2017-07-29T00:58:02.898Z,1003.0
2017-07-29T00:59:04.506Z,1002.9
2017-07-29T01:00:06.113Z,1003.0
2017-07-29T01:01:07.693Z,1003.0
2017-07-29T01:02:10.351Z,1003.0
2017-07-29T01:03:11.920Z,1003.0
2017-07-29T01:04:13.555Z,1003.0
2017-07-29T01:05:15.171Z,1003.0
2017-07-29T01:06:16.773Z,1003.0
2017-07-29T01:07:18.299Z,1002.9
2017-07-29T01:08:20.015Z,1003.0
2017-07-29T01:09:21.581Z,1003.0
2017-07-29T01:10:23.226Z,1003.0
2017-07-29T01:11:24.852Z,1003.0
2017-07-29T01:12:26.506Z,1003.0
2017-07-29T01:13:28.073Z,1003.0
2017-07-29T01:14:29.744Z,1003.0
2017-07-29T01:15:31.337Z,1003.0
2017-07-29T01:16:33.980Z,1003.0
2017-07-29T01:17:35.576Z,1003.0
2017-07-29T01:18:37.233Z,1003.0
2017-07-29T01:19:38.796Z,1002.9
2017-07-29T01:20:40.454Z,1002.9
2017-07-29T01:21:42.059Z,1002.9
2017-07-29T01:22:43.705Z,1002.9
2017-07-29T01:23:45.306Z,1002.9
2017-07-29T01:24:46.892Z,1002.9
2017-07-29T01:25:48.457Z,1002.9
2017-07-29T01:26:50.033Z,1002.9
2017-07-29T01:27:51.667Z,1002.9
2017-07-29T01:28:53.290Z,1002.8
2017-07-29T01:29:54.823Z,1002.8
2017-07-29T01:30:56.511Z,1002.9
2017-07-29T01:31:58.103Z,1002.9
2017-07-29T01:32:59.812Z,1002.9
2017-07-29T01:34:01.391Z,1002.9
2017-07-29T01:35:03.062Z,1002.9
2017-07-29T01:36:04.623Z,1002.9
2017-07-29T01:37:06.318Z,1002.9
2017-07-29T01:38:07.979Z,1002.9
2017-07-29T01:39:09.760Z,1002.9
2017-07-29T01:40:11.310Z,1002.9
2017-07-29T01:41:12.969Z,1002.9
2017-07-29T01:42:14.593Z,1002.9
2017-07-29T01:43:16.245Z,1003.0
2017-07-29T01:44:17.919Z,1003.0
2017-07-29T01:45:19.539Z,1003.0
2017-07-29T01:46:21.139Z,1002.9
2017-07-29T01:47:22.775Z,1002.9
2017-07-29T01:48:24.490Z,1002.9
2017-07-29T01:49:26.113Z,1002.9
2017-07-29T01:50:27.708Z,1002.9
2017-07-29T01:51:29.432Z,1003.0
2017-07-29T01:52:30.984Z,1002.9
2017-07-29T01:53:32.631Z,1003.0
2017-07-29T01:54:34.236Z,1002.9
2017-07-29T01:55:35.928Z,1003.0
2017-07-29T01:56:37.575Z,1003.0
2017-07-29T01:57:39.293Z,1003.1
2017-07-29T01:58:40.871Z,1003.1
2017-07-29T01:59:42.563Z,1003.0
2017-07-29T02:00:44.150Z,1003.0
2017-07-29T02:01:45.868Z,1003.0
2017-07-29T02:02:47.529Z,1003.1
2017-07-29T02:03:49.156Z,1003.1
2017-07-29T02:04:50.804Z,1003.1
2017-07-29T02:05:53.418Z,1003.0
2017-07-29T02:06:55.022Z,1003.1
2017-07-29T02:07:56.652Z,1003.1
2017-07-29T02:08:58.203Z,1003.0
2017-07-29T02:09:59.878Z,1003.1
2017-07-29T02:11:01.504Z,1003.1
2017-07-29T02:12:03.190Z,1003.1
2017-07-29T02:13:04.850Z,1003.0
2017-07-29T02:14:06.462Z,1003.0
2017-07-29T02:15:08.094Z,1003.0
2017-07-29T02:16:09.757Z,1003.0
2017-07-29T02:17:11.390Z,1002.9
2017-07-29T02:18:13.137Z,1003.0
2017-07-29T02:19:14.752Z,1003.0
2017-07-29T02:20:16.349Z,1003.0
2017-07-29T02:21:17.998Z,1003.0
2017-07-29T02:22:19.637Z,1003.0
2017-07-29T02:23:21.222Z,1003.0
2017-07-29T02:24:22.909Z,1003.0
2017-07-29T02:25:24.545Z,1003.0
2017-07-29T02:26:26.279Z,1003.0
2017-07-29T02:27:27.849Z,1003.0
2017-07-29T02:28:29.535Z,1003.0
2017-07-29T02:29:31.081Z,1002.9
2017-07-29T02:30:32.701Z,1003.0
2017-07-29T02:31:34.269Z,1003.0
2017-07-29T02:32:35.939Z,1003.0
2017-07-29T02:33:37.554Z,1003.0
2017-07-29T02:34:39.169Z,1003.0
2017-07-29T02:35:40.778Z,1003.0
2017-07-29T02:36:43.419Z,1003.0
2017-07-29T02:37:44.961Z,1002.9
2017-07-29T02:38:46.597Z,1003.0
2017-07-29T02:39:48.141Z,1003.0
2017-07-29T02:40:49.752Z,1003.0
2017-07-29T02:41:51.258Z,1002.9
2017-07-29T02:42:52.897Z,1003.0
2017-07-29T02:43:54.488Z,1003.0
2017-07-29T02:44:56.184Z,1003.0
2017-07-29T02:45:57.812Z,1003.0
2017-07-29T02:46:59.401Z,1003.0
2017-07-29T02:48:01.031Z,1003.0
2017-07-29T02:49:02.799Z,1003.0
2017-07-29T02:50:04.327Z,1003.0
2017-07-29T02:51:05.931Z,1003.0
2017-07-29T02:52:07.512Z,1003.1
2017-07-29T02:53:10.234Z,1003.0
2017-07-29T02:54:11.911Z,1003.0
2017-07-29T02:55:13.659Z,1003.0
2017-07-29T02:56:15.185Z,1003.1
2017-07-29T02:57:16.852Z,1003.0
2017-07-29T02:58:18.456Z,1003.1
2017-07-29T02:59:20.178Z,1003.1
2017-07-29T03:00:21.766Z,1003.1
2017-07-29T03:01:23.379Z,1003.1
2017-07-29T03:02:24.948Z,1003.1
2017-07-29T03:03:26.595Z,1003.1
2017-07-29T03:04:28.167Z,1003.1
2017-07-29T03:05:29.939Z,1003.1
2017-07-29T03:06:31.530Z,1003.1
2017-07-29T03:07:33.128Z,1003.1
2017-07-29T03:08:34.665Z,1003.1
2017-07-29T03:09:36.208Z,1003.2
2017-07-29T03:10:37.821Z,1003.2
2017-07-29T03:11:40.498Z,1003.2
2017-07-29T03:12:42.123Z,1003.2
2017-07-29T03:13:44.865Z,1003.2
2017-07-29T03:14:46.563Z,1003.2
2017-07-29T03:15:48.402Z,1003.2
2017-07-29T03:16:50.006Z,1003.3
2017-07-29T03:17:51.607Z,1003.2
2017-07-29T03:18:53.231Z,1003.2
2017-07-29T03:19:54.967Z,1003.2
2017-07-29T03:20:56.530Z,1003.2
2017-07-29T03:21:58.199Z,1003.2
2017-07-29T03:22:59.793Z,1003.3
2017-07-29T03:24:01.457Z,1003.2
2017-07-29T03:25:02.982Z,1003.3
2017-07-29T03:26:04.637Z,1003.3
2017-07-29T03:27:06.240Z,1003.3
2017-07-29T03:28:07.944Z,1003.3
2017-07-29T03:29:09.533Z,1003.2
2017-07-29T03:30:11.116Z,1003.2
2017-07-29T03:31:12.727Z,1003.2
2017-07-29T03:32:14.366Z,1003.2
2017-07-29T03:33:15.892Z,1003.2
2017-07-29T03:34:17.545Z,1003.2
2017-07-29T03:35:19.127Z,1003.2
2017-07-29T03:36:20.754Z,1003.2
2017-07-29T03:37:22.424Z,1003.2
2017-07-29T03:38:24.006Z,1003.2
2017-07-29T03:39:25.662Z,1003.1
2017-07-29T03:40:27.327Z,1003.2
2017-07-29T03:41:28.897Z,1003.1
2017-07-29T03:42:30.450Z,1003.2
2017-07-29T03:43:32.131Z,1003.2
2017-07-29T03:44:33.803Z,1003.2
2017-07-29T03:45:35.449Z,1003.3
2017-07-29T03:46:37.135Z,1003.3
2017-07-29T03:47:38.765Z,1003.2
2017-07-29T03:48:40.433Z,1003.2
2017-07-29T03:49:42.085Z,1003.2
2017-07-29T03:50:43.697Z,1003.1
2017-07-29T03:51:45.336Z,1003.2
2017-07-29T03:52:46.957Z,1003.1
2017-07-29T03:53:48.552Z,1003.2
2017-07-29T03:54:51.263Z,1003.1
2017-07-29T03:55:52.849Z,1003.2
2017-07-29T03:56:54.420Z,1003.2
2017-07-29T03:57:55.998Z,1003.2
2017-07-29T03:58:57.591Z,1003.1
2017-07-29T03:59:59.177Z,1003.2
2017-07-29T04:01:00.806Z,1003.2
2017-07-29T04:02:02.468Z,1003.3
2017-07-29T04:03:04.060Z,1003.3
2017-07-29T04:04:05.592Z,1003.3
2017-07-29T04:05:07.201Z,1003.4
2017-07-29T04:06:08.868Z,1003.3
2017-07-29T04:07:10.469Z,1003.4
2017-07-29T04:08:12.172Z,1003.3
2017-07-29T04:09:13.741Z,1003.3
2017-07-29T04:10:15.254Z,1003.3
2017-07-29T04:11:18.411Z,1003.3
2017-07-29T04:12:20.104Z,1003.3
2017-07-29T04:13:21.730Z,1003.4
2017-07-29T04:14:23.326Z,1003.4
2017-07-29T04:15:24.915Z,1003.3
2017-07-29T04:16:26.495Z,1003.4
2017-07-29T04:17:28.075Z,1003.4
2017-07-29T04:18:29.744Z,1003.4
2017-07-29T04:19:31.306Z,1003.4
2017-07-29T04:20:32.906Z,1003.4
2017-07-29T04:21:34.504Z,1003.4
2017-07-29T04:22:36.187Z,1003.4
2017-07-29T04:23:37.748Z,1003.4
2017-07-29T04:24:39.338Z,1003.5
2017-07-29T04:25:41.054Z,1003.5
2017-07-29T04:26:42.647Z,1003.5
2017-07-29T04:27:44.212Z,1003.5
2017-07-29T04:28:45.786Z,1003.5
2017-07-29T04:29:47.476Z,1003.5
2017-07-29T04:30:49.093Z,1003.5
2017-07-29T04:31:50.787Z,1003.4
2017-07-29T04:32:52.288Z,1003.4
2017-07-29T04:33:53.956Z,1003.4
2017-07-29T04:34:55.541Z,1003.4
2017-07-29T04:35:57.115Z,1003.5
2017-07-29T04:36:58.708Z,1003.5
2017-07-29T04:38:00.343Z,1003.5
2017-07-29T04:39:01.983Z,1003.4
2017-07-29T04:40:03.647Z,1003.4
2017-07-29T04:41:05.178Z,1003.5
2017-07-29T04:42:06.804Z,1003.5
2017-07-29T04:43:08.364Z,1003.5
2017-07-29T04:44:10.039Z,1003.5
2017-07-29T04:45:11.725Z,1003.4
2017-07-29T04:46:13.395Z,1003.5
2017-07-29T04:47:14.965Z,1003.4
2017-07-29T04:48:16.598Z,1003.5
2017-07-29T04:49:18.247Z,1003.4
2017-07-29T04:50:19.925Z,1003.5
2017-07-29T04:51:21.567Z,1003.5
2017-07-29T04:52:23.266Z,1003.5
2017-07-29T04:53:24.865Z,1003.4
2017-07-29T04:54:26.567Z,1003.5
2017-07-29T04:55:28.174Z,1003.6
2017-07-29T04:56:29.861Z,1003.6
2017-07-29T04:57:31.457Z,1003.6
2017-07-29T04:58:33.069Z,1003.6
2017-07-29T04:59:34.635Z,1003.6
2017-07-29T05:00:36.337Z,1003.5
2017-07-29T05:01:37.952Z,1003.6
2017-07-29T05:02:39.679Z,1003.6
2017-07-29T05:03:41.279Z,1003.7
2017-07-29T05:04:42.886Z,1003.6
2017-07-29T05:05:44.468Z,1003.6
2017-07-29T05:06:46.095Z,1003.6
2017-07-29T05:07:47.744Z,1003.6
2017-07-29T05:08:49.301Z,1003.6
2017-07-29T05:09:50.890Z,1003.6
2017-07-29T05:10:52.593Z,1003.6
2017-07-29T05:11:54.239Z,1003.7
2017-07-29T05:12:55.800Z,1003.7
2017-07-29T05:13:57.424Z,1003.7
2017-07-29T05:14:59.048Z,1003.7
2017-07-29T05:16:00.656Z,1003.6
2017-07-29T05:17:02.292Z,1003.7
2017-07-29T05:18:03.909Z,1003.7
2017-07-29T05:19:05.785Z,1003.7
2017-07-29T05:20:07.513Z,1003.7
2017-07-29T05:21:09.028Z,1003.7
2017-07-29T05:22:10.756Z,1003.7
2017-07-29T05:23:12.359Z,1003.6
2017-07-29T05:24:13.997Z,1003.6
2017-07-29T05:25:15.692Z,1003.7
2017-07-29T05:26:17.432Z,1003.6
2017-07-29T05:27:19.159Z,1003.6
2017-07-29T05:28:20.788Z,1003.6
2017-07-29T05:29:22.466Z,1003.6
2017-07-29T05:30:24.207Z,1003.6
2017-07-29T05:31:25.827Z,1003.7
2017-07-29T05:32:27.469Z,1003.7
2017-07-29T05:33:29.251Z,1003.6
2017-07-29T05:34:30.840Z,1003.7
2017-07-29T05:35:32.607Z,1003.8
2017-07-29T05:36:34.257Z,1003.7
2017-07-29T05:37:35.930Z,1003.6
2017-07-29T05:38:38.179Z,1003.7
2017-07-29T05:39:39.735Z,1003.7
2017-07-29T05:40:41.813Z,1003.7
2017-07-29T05:41:43.902Z,1003.7
2017-07-29T05:42:46.054Z,1003.8
2017-07-29T05:43:48.038Z,1003.8
2017-07-29T05:44:50.076Z,1003.8
2017-07-29T05:45:52.032Z,1003.8
2017-07-29T05:46:54.228Z,1003.8
2017-07-29T05:47:56.013Z,1003.8
2017-07-29T05:48:57.927Z,1003.8
2017-07-29T05:49:59.963Z,1003.8
2017-07-29T05:51:02.070Z,1003.9
2017-07-29T05:52:03.648Z,1003.9
2017-07-29T05:53:05.261Z,1003.9
2017-07-29T05:54:06.865Z,1003.9
2017-07-29T05:55:08.462Z,1003.9
2017-07-29T05:56:09.966Z,1003.9
2017-07-29T05:57:11.596Z,1003.9
2017-07-29T05:58:13.138Z,1003.9
2017-07-29T05:59:14.823Z,1003.9
2017-07-29T06:00:16.459Z,1004.0
2017-07-29T06:01:18.079Z,1004.0
2017-07-29T06:02:19.640Z,1003.9
2017-07-29T06:03:21.293Z,1003.9
2017-07-29T06:04:22.838Z,1003.9
2017-07-29T06:05:24.483Z,1003.9
2017-07-29T06:06:26.026Z,1003.9
2017-07-29T06:07:27.707Z,1003.9
2017-07-29T06:08:29.484Z,1003.9
2017-07-29T06:09:31.086Z,1003.9
2017-07-29T06:10:32.614Z,1003.9
2017-07-29T06:11:34.340Z,1003.9
2017-07-29T06:12:35.976Z,1004.0
2017-07-29T06:13:37.651Z,1004.0
2017-07-29T06:14:39.285Z,1004.0
2017-07-29T06:15:41.053Z,1004.0
2017-07-29T06:16:42.710Z,1004.0
2017-07-29T06:17:44.301Z,1004.0
2017-07-29T06:18:45.975Z,1004.0
2017-07-29T06:19:47.652Z,1004.0
2017-07-29T06:20:49.287Z,1004.0
2017-07-29T06:21:51.004Z,1004.0
2017-07-29T06:22:52.695Z,1004.0
2017-07-29T06:23:54.288Z,1004.0
2017-07-29T06:24:55.822Z,1004.0
2017-07-29T06:25:57.488Z,1004.0
2017-07-29T06:26:59.078Z,1004.0
2017-07-29T06:28:00.748Z,1004.0
2017-07-29T06:29:02.414Z,1004.0
2017-07-29T06:30:04.150Z,1004.0
2017-07-29T06:31:05.780Z,1004.0
2017-07-29T06:32:07.396Z,1004.0
2017-07-29T06:33:08.985Z,1004.0
2017-07-29T06:34:10.692Z,1004.1
2017-07-29T06:35:12.388Z,1004.1
2017-07-29T06:36:13.986Z,1004.1
2017-07-29T06:37:15.554Z,1004.1
2017-07-29T06:38:17.288Z,1004.1
2017-07-29T06:39:18.843Z,1004.2
2017-07-29T06:40:20.441Z,1004.1
2017-07-29T06:41:21.939Z,1004.2
2017-07-29T06:42:23.515Z,1004.1
2017-07-29T06:43:25.140Z,1004.1
2017-07-29T06:44:26.810Z,1004.2
2017-07-29T06:45:28.417Z,1004.2
2017-07-29T06:46:30.945Z,1004.2
2017-07-29T06:47:32.937Z,1004.1
2017-07-29T06:48:35.485Z,1004.2
2017-07-29T06:49:37.661Z,1004.2
2017-07-29T06:50:39.626Z,1004.2
2017-07-29T06:51:42.803Z,1004.2
2017-07-29T06:52:46.008Z,1004.2
2017-07-29T06:53:47.604Z,1004.3
2017-07-29T06:54:49.405Z,1004.2
2017-07-29T06:55:51.151Z,1004.2
2017-07-29T06:56:52.851Z,1004.2
2017-07-29T06:57:54.495Z,1004.2
2017-07-29T06:58:56.120Z,1004.3
2017-07-29T06:59:57.686Z,1004.3
2017-07-29T07:00:59.275Z,1004.3
2017-07-29T07:02:00.857Z,1004.3
2017-07-29T07:03:02.419Z,1004.3
2017-07-29T07:04:04.016Z,1004.3
2017-07-29T07:05:05.656Z,1004.3
2017-07-29T07:06:07.143Z,1004.3
2017-07-29T07:07:08.889Z,1004.3
2017-07-29T07:08:10.380Z,1004.3
2017-07-29T07:09:12.000Z,1004.3
2017-07-29T07:10:13.668Z,1004.3
2017-07-29T07:11:15.192Z,1004.3
2017-07-29T07:12:16.884Z,1004.3
2017-07-29T07:13:18.494Z,1004.3
2017-07-29T07:14:20.620Z,1004.3
2017-07-29T07:15:22.664Z,1004.3
2017-07-29T07:16:32.290Z,1004.4
2017-07-29T07:17:34.044Z,1004.3
2017-07-29T07:18:35.844Z,1004.4
2017-07-29T07:19:37.507Z,1004.4
2017-07-29T07:20:39.152Z,1004.4
2017-07-29T07:21:40.840Z,1004.4
2017-07-29T07:22:42.506Z,1004.4
2017-07-29T07:23:44.125Z,1004.4
2017-07-29T07:24:45.680Z,1004.5
2017-07-29T07:25:47.313Z,1004.5
2017-07-29T07:26:48.917Z,1004.5
2017-07-29T07:27:50.549Z,1004.5
2017-07-29T07:28:52.196Z,1004.5
2017-07-29T07:29:53.754Z,1004.5
2017-07-29T07:30:55.348Z,1004.6
2017-07-29T07:31:56.892Z,1004.6
2017-07-29T07:32:58.446Z,1004.5
2017-07-29T07:33:59.976Z,1004.6
2017-07-29T07:35:01.596Z,1004.6
2017-07-29T07:36:03.173Z,1004.6
2017-07-29T07:37:04.728Z,1004.6
2017-07-29T07:38:06.296Z,1004.8
2017-07-29T07:39:07.938Z,1004.7
2017-07-29T07:40:09.540Z,1004.7
2017-07-29T07:41:11.086Z,1004.7
2017-07-29T07:42:12.678Z,1004.8
2017-07-29T07:43:14.290Z,1004.7
2017-07-29T07:44:15.902Z,1004.8
2017-07-29T07:45:17.483Z,1004.8
2017-07-29T07:46:19.166Z,1004.7
2017-07-29T07:47:20.754Z,1004.6
2017-07-29T07:48:22.293Z,1005.0
2017-07-29T07:49:23.854Z,1005.1
2017-07-29T07:50:25.420Z,1005.2
2017-07-29T07:51:27.032Z,1005.3
2017-07-29T07:52:28.874Z,1005.4
2017-07-29T07:53:30.411Z,1005.7
2017-07-29T07:54:32.086Z,1005.7
2017-07-29T07:55:33.683Z,1005.7
2017-07-29T07:56:35.275Z,1005.5
2017-07-29T07:57:36.837Z,1005.5
2017-07-29T07:58:38.405Z,1005.4
2017-07-29T07:59:40.030Z,1005.4
2017-07-29T08:00:41.669Z,1005.0
2017-07-29T08:01:43.251Z,1004.8
2017-07-29T08:02:44.958Z,1005.1
2017-07-29T08:03:46.537Z,1005.5
2017-07-29T08:04:48.176Z,1005.3
2017-07-29T08:05:49.913Z,1005.4
2017-07-29T08:06:51.572Z,1005.3
2017-07-29T08:07:53.198Z,1005.2
2017-07-29T08:08:54.828Z,1005.3
2017-07-29T08:09:56.430Z,1005.2
2017-07-29T08:10:58.126Z,1005.3
2017-07-29T08:11:59.758Z,1005.3
2017-07-29T08:13:01.447Z,1005.3
2017-07-29T08:14:03.074Z,1005.3
2017-07-29T08:15:04.709Z,1005.3
2017-07-29T08:16:06.335Z,1005.2
2017-07-29T08:17:08.081Z,1005.2
2017-07-29T08:18:09.744Z,1005.1
2017-07-29T08:19:11.391Z,1005.1
2017-07-29T08:20:13.019Z,1005.0
2017-07-29T08:21:14.662Z,1005.1
2017-07-29T08:22:16.247Z,1005.1
2017-07-29T08:22:52.844Z,1005.1
2017-07-29T08:23:54.298Z,1005.1
2017-07-29T08:24:55.764Z,1005.0
2017-07-29T08:25:57.245Z,1005.1
2017-07-29T08:26:58.745Z,1005.1
2017-07-29T08:28:00.294Z,1005.0
2017-07-29T08:29:01.821Z,1005.1
2017-07-29T08:30:03.257Z,1005.1
2017-07-29T08:31:04.691Z,1005.0
2017-07-29T08:32:06.122Z,1005.1
2017-07-29T08:33:07.583Z,1005.1
2017-07-29T08:34:09.036Z,1005.1
2017-07-29T08:35:10.638Z,1005.2
2017-07-29T08:36:12.084Z,1005.2
2017-07-29T08:37:13.540Z,1005.2
2017-07-29T08:38:15.028Z,1005.2
2017-07-29T08:39:16.526Z,1005.3
2017-07-29T08:40:17.957Z,1005.4
2017-07-29T08:41:19.434Z,1005.5
2017-07-29T08:42:20.867Z,1005.6
2017-07-29T08:43:22.378Z,1005.6
2017-07-29T08:44:23.952Z,1005.7
2017-07-29T08:45:25.465Z,1005.7
2017-07-29T08:46:26.926Z,1005.4
2017-07-29T08:47:28.552Z,1005.3
2017-07-29T08:48:29.986Z,1005.1
2017-07-29T08:49:31.436Z,1005.3
2017-07-29T08:50:32.870Z,1005.1
2017-07-29T08:51:34.320Z,1005.4
2017-07-29T08:52:35.778Z,1005.7
2017-07-29T08:53:37.345Z,1006.0
2017-07-29T08:54:38.837Z,1005.9
2017-07-29T08:55:40.364Z,1005.8
2017-07-29T08:56:41.869Z,1006.3
2017-07-29T08:57:43.381Z,1006.2
2017-07-29T08:58:44.890Z,1006.2
2017-07-29T08:59:46.344Z,1006.0
2017-07-29T09:00:47.781Z,1006.0
2017-07-29T09:01:50.250Z,1006.2
2017-07-29T09:02:51.699Z,1006.1
2017-07-29T09:03:53.225Z,1006.1
2017-07-29T09:04:18.947Z,1006.1
2017-07-29T09:05:20.486Z,1006.1
2017-07-29T09:06:21.906Z,1006.0
2017-07-29T09:07:23.398Z,1005.8
2017-07-29T09:08:24.872Z,1005.7
2017-07-29T09:09:26.357Z,1005.6
2017-07-29T09:10:27.793Z,1005.4
2017-07-29T09:11:30.260Z,1005.5
2017-07-29T09:12:31.720Z,1005.5
2017-07-29T09:13:33.239Z,1005.4
2017-07-29T09:14:34.667Z,1005.4
2017-07-29T09:15:36.126Z,1005.3
2017-07-29T09:16:37.572Z,1005.2
2017-07-29T09:17:39.085Z,1005.0
2017-07-29T09:18:40.569Z,1005.0
2017-07-29T09:19:42.101Z,1005.0
2017-07-29T09:20:43.526Z,1005.0
2017-07-29T09:21:45.077Z,1004.5
2017-07-29T09:22:46.510Z,1004.8
2017-07-29T09:23:48.095Z,1004.8
2017-07-29T09:24:49.539Z,1004.8
2017-07-29T09:25:51.049Z,1004.7
2017-07-29T09:26:52.519Z,1004.7
2017-07-29T09:27:54.004Z,1004.6
2017-07-29T09:28:55.436Z,1004.7
2017-07-29T09:29:56.908Z,1004.7
2017-07-29T09:30:58.380Z,1004.8
2017-07-29T09:31:59.887Z,1004.8
2017-07-29T09:33:01.347Z,1004.6
2017-07-29T09:34:02.957Z,1004.3
2017-07-29T09:35:04.493Z,1004.4
2017-07-29T09:36:06.170Z,1004.9
2017-07-29T09:37:07.839Z,1004.8
2017-07-29T09:38:09.515Z,1004.7
2017-07-29T09:39:11.126Z,1004.6
2017-07-29T09:40:13.064Z,1004.7
2017-07-29T09:41:14.740Z,1004.5
2017-07-29T09:42:16.444Z,1004.4
2017-07-29T09:43:18.295Z,1004.5
2017-07-29T09:44:20.148Z,1004.5
2017-07-29T09:45:21.833Z,1004.6
2017-07-29T09:46:23.611Z,1004.6
2017-07-29T09:47:25.282Z,1004.4
2017-07-29T09:48:26.961Z,1004.4
2017-07-29T09:49:28.660Z,1004.4
2017-07-29T09:50:31.551Z,1004.4
2017-07-29T09:51:33.279Z,1004.3
2017-07-29T09:52:34.864Z,1004.4
2017-07-29T09:53:36.445Z,1004.4
2017-07-29T09:54:38.133Z,1004.4
2017-07-29T09:55:39.881Z,1004.3
2017-07-29T09:56:46.134Z,1004.3
2017-07-29T09:57:47.802Z,1004.4
2017-07-29T09:58:49.489Z,1004.3
2017-07-29T09:59:51.137Z,1004.4
2017-07-29T10:00:52.795Z,1004.2
2017-07-29T10:01:54.643Z,1004.2
2017-07-29T10:02:56.402Z,1004.3
2017-07-29T10:03:58.071Z,1004.3
2017-07-29T10:04:59.798Z,1004.4
2017-07-29T10:14:53.643Z,1004.3
2017-07-29T10:15:55.090Z,1004.2
2017-07-29T10:16:56.593Z,1004.2
2017-07-29T10:17:58.057Z,1004.2
2017-07-29T10:18:59.582Z,1004.1
2017-07-29T10:20:01.074Z,1004.1
2017-07-29T10:21:02.577Z,1004.0
2017-07-29T10:22:03.999Z,1004.1
2017-07-29T10:23:05.522Z,1004.1
2017-07-29T10:24:07.005Z,1004.1
2017-07-29T10:25:08.538Z,1004.1
2017-07-29T10:26:09.993Z,1004.1
2017-07-29T10:27:11.507Z,1004.3
2017-07-29T10:28:12.971Z,1004.1
2017-07-29T10:29:15.518Z,1003.9
2017-07-29T10:30:16.938Z,1004.0
2017-07-29T10:31:19.423Z,1004.0
2017-07-29T10:32:20.901Z,1004.1
2017-07-29T10:33:22.487Z,1004.3
2017-07-29T10:34:23.972Z,1004.4
2017-07-29T10:35:25.499Z,1004.4
2017-07-29T10:36:27.143Z,1004.2
2017-07-29T10:37:28.683Z,1004.0
2017-07-29T10:38:30.122Z,1004.1
2017-07-29T10:39:31.648Z,1004.3
2017-07-29T10:40:33.151Z,1004.2
2017-07-29T10:41:34.642Z,1004.1
2017-07-29T10:42:36.076Z,1004.1
2017-07-29T10:43:38.532Z,1004.1
2017-07-29T10:44:39.954Z,1004.1
2017-07-29T10:45:42.499Z,1004.0
2017-07-29T10:46:43.963Z,1004.0
2017-07-29T10:47:45.488Z,1004.0
2017-07-29T10:48:46.946Z,1004.0
2017-07-29T10:49:48.425Z,1004.0
2017-07-29T10:50:49.886Z,1004.1
2017-07-29T10:51:33.076Z,1004.2
2017-07-29T10:52:01.761Z,1004.1
2017-07-29T10:53:03.313Z,1004.2
2017-07-29T10:54:04.726Z,1004.3
2017-07-29T10:55:06.281Z,1004.1
2017-07-29T10:56:08.033Z,1004.1
2017-07-29T10:57:09.462Z,1004.2
2017-07-29T10:58:11.290Z,1004.2
2017-07-29T10:59:12.814Z,1004.2
2017-07-29T11:00:14.565Z,1003.9
2017-07-29T11:01:16.320Z,1003.8
2017-07-29T11:02:17.887Z,1003.8
2017-07-29T11:03:19.411Z,1003.7
2017-07-29T11:04:20.907Z,1003.7
2017-07-29T11:05:22.371Z,1003.7
2017-07-29T11:06:23.882Z,1003.7
2017-07-29T11:07:26.359Z,1003.7
2017-07-29T11:08:28.456Z,1003.7
2017-07-29T11:09:30.610Z,1003.7
2017-07-29T11:10:32.287Z,1003.7
2017-07-29T11:11:33.846Z,1003.6
2017-07-29T11:12:36.791Z,1003.6
2017-07-29T11:13:38.405Z,1003.6
2017-07-29T11:14:40.746Z,1003.6
2017-07-29T11:15:44.135Z,1003.6
2017-07-29T11:16:45.845Z,1003.6
2017-07-29T11:17:48.629Z,1003.6
2017-07-29T11:18:50.400Z,1003.6
2017-07-29T11:19:52.888Z,1003.6
2017-07-29T11:20:55.208Z,1003.7
2017-07-29T11:21:57.805Z,1003.6
2017-07-29T11:22:59.515Z,1003.6
2017-07-29T11:24:01.139Z,1003.7
2017-07-29T11:25:05.399Z,1003.7
2017-07-29T11:26:07.119Z,1003.7
2017-07-29T11:27:08.696Z,1003.6
2017-07-29T11:28:10.354Z,1003.6
2017-07-29T11:29:12.065Z,1003.6
2017-07-29T11:30:14.784Z,1003.6
2017-07-29T11:31:16.466Z,1003.5
2017-07-29T11:32:18.104Z,1003.5
2017-07-29T11:33:19.811Z,1003.6
2017-07-29T11:34:21.506Z,1003.5
2017-07-29T11:35:23.228Z,1003.6
2017-07-29T11:36:27.098Z,1003.6
2017-07-29T11:37:29.031Z,1003.5
2017-07-29T11:38:30.567Z,1003.5
2017-07-29T11:39:32.177Z,1003.5
2017-07-29T11:40:33.753Z,1003.6
2017-07-29T11:41:35.434Z,1003.5
2017-07-29T11:42:37.026Z,1003.5
2017-07-29T11:43:38.755Z,1003.5
2017-07-29T11:44:40.422Z,1003.5
2017-07-29T11:45:42.111Z,1003.5
2017-07-29T11:46:43.765Z,1003.5
2017-07-29T11:47:45.367Z,1003.5
2017-07-29T11:48:46.970Z,1003.5
2017-07-29T11:49:48.606Z,1003.5
2017-07-29T11:50:50.210Z,1003.5
2017-07-29T11:51:51.798Z,1003.4
2017-07-29T11:52:53.560Z,1003.4
2017-07-29T11:53:55.178Z,1003.4
2017-07-29T11:54:57.056Z,1003.4
2017-07-29T11:55:58.769Z,1003.3
2017-07-29T11:57:00.423Z,1003.4
2017-07-29T11:58:01.994Z,1003.4
2017-07-29T11:59:03.788Z,1003.4
2017-07-29T12:00:05.435Z,1003.4
2017-07-29T15:33:24.103Z,1001.8
2017-07-29T15:34:25.560Z,1001.9
2017-07-29T15:35:27.051Z,1001.8
2017-07-29T15:36:28.519Z,1001.7
2017-07-29T15:37:30.095Z,1001.8
2017-07-29T15:38:31.559Z,1001.7
2017-07-29T15:39:33.012Z,1001.7
2017-07-29T15:40:34.509Z,1001.7
2017-07-29T15:41:36.075Z,1001.8
2017-07-29T15:42:37.539Z,1001.8
2017-07-29T15:43:39.066Z,1001.7
2017-07-29T15:44:40.512Z,1001.7
2017-07-29T15:45:42.165Z,1001.7
2017-07-29T15:46:43.575Z,1001.7
2017-07-29T15:47:45.038Z,1001.6
2017-07-29T15:48:46.618Z,1001.6
2017-07-29T15:49:48.100Z,1001.6
2017-07-29T15:50:49.575Z,1001.6
2017-07-29T15:51:51.594Z,1001.6
2017-07-29T15:52:53.042Z,1001.5
2017-07-29T15:53:54.477Z,1001.5
2017-07-29T15:54:55.918Z,1001.5
2017-07-29T15:55:57.372Z,1001.5
2017-07-29T15:56:58.814Z,1001.5
2017-07-29T15:58:00.333Z,1001.5
2017-07-29T15:59:01.850Z,1001.5
2017-07-29T16:00:03.439Z,1001.5
2017-07-29T16:01:04.892Z,1001.5
2017-07-29T16:02:06.503Z,1001.5
2017-07-29T16:03:07.949Z,1001.5
2017-07-29T16:04:09.495Z,1001.5
2017-07-29T16:05:10.941Z,1001.4
2017-07-29T16:06:13.490Z,1001.4
2017-07-29T16:07:14.923Z,1001.5
2017-07-29T16:08:16.512Z,1001.5
2017-07-29T16:09:17.934Z,1001.4
2017-07-29T16:10:19.480Z,1001.4
2017-07-29T16:11:20.910Z,1001.4
2017-07-29T16:12:22.426Z,1001.4
2017-07-29T16:13:23.852Z,1001.4
2017-07-29T16:14:25.359Z,1001.4
2017-07-29T16:15:26.772Z,1001.4
2017-07-29T16:16:28.208Z,1001.3
2017-07-29T16:17:29.715Z,1001.3
2017-07-29T16:18:31.644Z,1001.4
2017-07-29T16:19:34.464Z,1001.3
2017-07-29T16:20:36.480Z,1001.4
2017-07-29T16:21:38.349Z,1001.4
2017-07-29T16:22:40.033Z,1001.3
2017-07-29T16:23:41.697Z,1001.3
2017-07-29T16:24:43.376Z,1001.3
2017-07-29T16:25:44.949Z,1001.3
2017-07-29T16:26:46.602Z,1001.3
2017-07-29T16:27:48.229Z,1001.3
2017-07-29T16:28:49.833Z,1001.3